sensor_id;sensor_type;location;lat;lon;timestamp;temperature;humidity
1367;DHT22;16877;48.810;9.282;2023-10-13T00:01:10;26.60;57.70
1367;DHT22;16877;48.810;9.282;2023-10-13T00:03:38;26.60;56.80
1367;DHT22;16877;48.810;9.282;2023-10-13T00:06:06;26.70;56.50
1367;DHT22;16877;48.810;9.282;2023-10-13T00:08:34;26.40;56.10
1367;DHT22;16877;48.810;9.282;2023-10-13T00:11:02;26.50;55.90
1367;DHT22;16877;48.810;9.282;2023-10-13T00:13:30;26.70;55.60
1367;DHT22;16877;48.810;9.282;2023-10-13T00:16:06;26.30;55.10
1367;DHT22;16877;48.810;9.282;2023-10-13T00:18:36;26.30;54.60
1367;DHT22;16877;48.810;9.282;2023-10-13T00:21:07;26.60;54.60
1367;DHT22;16877;48.810;9.282;2023-10-13T00:23:39;26.40;54.20
1367;DHT22;16877;48.810;9.282;2023-10-13T00:26:09;26.60;54.30
1367;DHT22;16877;48.810;9.282;2023-10-13T00:28:36;26.50;54.00
1367;DHT22;16877;48.810;9.282;2023-10-13T00:31:10;26.60;54.10
1367;DHT22;16877;48.810;9.282;2023-10-13T00:33:38;26.30;53.80
1367;DHT22;16877;48.810;9.282;2023-10-13T00:36:07;26.40;53.70
1367;DHT22;16877;48.810;9.282;2023-10-13T00:38:34;26.30;53.50
1367;DHT22;16877;48.810;9.282;2023-10-13T00:41:02;26.70;53.70
1367;DHT22;16877;48.810;9.282;2023-10-13T00:43:45;26.40;53.50
1367;DHT22;16877;48.810;9.282;2023-10-13T00:46:30;26.30;53.30
1367;DHT22;16877;48.810;9.282;2023-10-13T00:49:01;26.50;53.40
1367;DHT22;16877;48.810;9.282;2023-10-13T00:51:29;26.40;53.50
1367;DHT22;16877;48.810;9.282;2023-10-13T00:54:07;26.30;53.30
1367;DHT22;16877;48.810;9.282;2023-10-13T00:56:38;26.50;53.40
1367;DHT22;16877;48.810;9.282;2023-10-13T00:59:06;26.30;53.20
1367;DHT22;16877;48.810;9.282;2023-10-13T01:01:35;26.50;53.30
1367;DHT22;16877;48.810;9.282;2023-10-13T01:04:04;26.20;53.10
1367;DHT22;16877;48.810;9.282;2023-10-13T01:06:34;26.30;53.20
1367;DHT22;16877;48.810;9.282;2023-10-13T01:09:05;26.40;53.30
1367;DHT22;16877;48.810;9.282;2023-10-13T01:11:39;26.10;53.20
1367;DHT22;16877;48.810;9.282;2023-10-13T01:14:05;26.10;53.20
1367;DHT22;16877;48.810;9.282;2023-10-13T01:16:32;26.10;53.20
1367;DHT22;16877;48.810;9.282;2023-10-13T01:18:58;26.50;53.50
1367;DHT22;16877;48.810;9.282;2023-10-13T01:21:26;26.50;53.50
1367;DHT22;16877;48.810;9.282;2023-10-13T01:23:54;26.20;53.30
1367;DHT22;16877;48.810;9.282;2023-10-13T01:26:21;26.10;53.30
1367;DHT22;16877;48.810;9.282;2023-10-13T01:28:50;26.30;53.40
1367;DHT22;16877;48.810;9.282;2023-10-13T01:31:19;26.40;53.50
1367;DHT22;16877;48.810;9.282;2023-10-13T01:33:53;26.60;53.60
1367;DHT22;16877;48.810;9.282;2023-10-13T01:36:21;26.40;53.50
1367;DHT22;16877;48.810;9.282;2023-10-13T01:38:47;26.30;53.40
1367;DHT22;16877;48.810;9.282;2023-10-13T01:41:17;26.30;53.50
1367;DHT22;16877;48.810;9.282;2023-10-13T01:43:43;26.50;53.60
1367;DHT22;16877;48.810;9.282;2023-10-13T01:46:10;26.10;53.40
1367;DHT22;16877;48.810;9.282;2023-10-13T01:48:39;26.30;53.60
1367;DHT22;16877;48.810;9.282;2023-10-13T01:51:06;26.10;53.40
1367;DHT22;16877;48.810;9.282;2023-10-13T01:53:36;26.20;53.50
1367;DHT22;16877;48.810;9.282;2023-10-13T01:56:04;26.40;53.70
1367;DHT22;16877;48.810;9.282;2023-10-13T01:58:37;26.00;53.50
1367;DHT22;16877;48.810;9.282;2023-10-13T02:01:06;26.30;53.80
1367;DHT22;16877;48.810;9.282;2023-10-13T02:03:33;26.10;53.70
1367;DHT22;16877;48.810;9.282;2023-10-13T02:05:59;26.20;53.70
1367;DHT22;16877;48.810;9.282;2023-10-13T02:08:30;26.00;53.70
1367;DHT22;16877;48.810;9.282;2023-10-13T02:10:57;26.00;53.80
1367;DHT22;16877;48.810;9.282;2023-10-13T02:13:25;26.20;53.90
1367;DHT22;16877;48.810;9.282;2023-10-13T02:15:55;25.90;53.90
1367;DHT22;16877;48.810;9.282;2023-10-13T02:18:22;26.00;54.00
1367;DHT22;16877;48.810;9.282;2023-10-13T02:20:52;25.90;53.90
1367;DHT22;16877;48.810;9.282;2023-10-13T02:23:21;26.00;54.00
1367;DHT22;16877;48.810;9.282;2023-10-13T02:25:48;26.20;54.10
1367;DHT22;16877;48.810;9.282;2023-10-13T02:28:18;26.10;54.10
1367;DHT22;16877;48.810;9.282;2023-10-13T02:30:54;26.20;54.10
1367;DHT22;16877;48.810;9.282;2023-10-13T02:33:23;26.20;54.00
1367;DHT22;16877;48.810;9.282;2023-10-13T02:35:56;26.50;54.20
1367;DHT22;16877;48.810;9.282;2023-10-13T02:38:23;26.30;54.10
1367;DHT22;16877;48.810;9.282;2023-10-13T02:40:54;26.00;54.50
1367;DHT22;16877;48.810;9.282;2023-10-13T02:43:22;26.30;54.00
1367;DHT22;16877;48.810;9.282;2023-10-13T02:45:55;26.10;53.90
1367;DHT22;16877;48.810;9.282;2023-10-13T02:48:25;26.20;53.90
1367;DHT22;16877;48.810;9.282;2023-10-13T02:50:56;26.30;54.00
1367;DHT22;16877;48.810;9.282;2023-10-13T02:53:27;26.30;53.90
1367;DHT22;16877;48.810;9.282;2023-10-13T02:55:55;26.30;53.90
1367;DHT22;16877;48.810;9.282;2023-10-13T02:58:24;26.20;53.80
1367;DHT22;16877;48.810;9.282;2023-10-13T03:01:05;26.50;54.00
1367;DHT22;16877;48.810;9.282;2023-10-13T03:03:43;26.20;53.80
1367;DHT22;16877;48.810;9.282;2023-10-13T03:06:09;26.30;53.90
1367;DHT22;16877;48.810;9.282;2023-10-13T03:08:37;26.20;53.80
1367;DHT22;16877;48.810;9.282;2023-10-13T03:11:03;26.30;54.00
1367;DHT22;16877;48.810;9.282;2023-10-13T03:13:30;26.20;53.80
1367;DHT22;16877;48.810;9.282;2023-10-13T03:15:58;26.40;53.90
1367;DHT22;16877;48.810;9.282;2023-10-13T03:18:26;26.00;53.70
1367;DHT22;16877;48.810;9.282;2023-10-13T03:20:55;26.20;53.80
1367;DHT22;16877;48.810;9.282;2023-10-13T03:23:24;26.10;53.70
1367;DHT22;16877;48.810;9.282;2023-10-13T03:25:50;26.20;53.80
1367;DHT22;16877;48.810;9.282;2023-10-13T03:28:21;26.30;53.80
1367;DHT22;16877;48.810;9.282;2023-10-13T03:30:51;25.80;53.50
1367;DHT22;16877;48.810;9.282;2023-10-13T03:33:18;26.20;53.80
1367;DHT22;16877;48.810;9.282;2023-10-13T03:35:53;26.00;53.80
1367;DHT22;16877;48.810;9.282;2023-10-13T03:38:20;26.20;53.90
1367;DHT22;16877;48.810;9.282;2023-10-13T03:40:52;26.00;53.80
1367;DHT22;16877;48.810;9.282;2023-10-13T03:43:37;26.00;53.90
1367;DHT22;16877;48.810;9.282;2023-10-13T03:46:11;25.80;53.80
1367;DHT22;16877;48.810;9.282;2023-10-13T03:48:38;26.10;54.00
1367;DHT22;16877;48.810;9.282;2023-10-13T03:51:18;25.90;53.80
1367;DHT22;16877;48.810;9.282;2023-10-13T03:53:46;25.90;54.10
1367;DHT22;16877;48.810;9.282;2023-10-13T03:56:19;25.80;54.20
1367;DHT22;16877;48.810;9.282;2023-10-13T03:58:53;25.90;54.20
1367;DHT22;16877;48.810;9.282;2023-10-13T04:01:23;26.10;54.40
1367;DHT22;16877;48.810;9.282;2023-10-13T04:03:58;26.10;54.40
1367;DHT22;16877;48.810;9.282;2023-10-13T04:06:30;26.00;54.40
1367;DHT22;16877;48.810;9.282;2023-10-13T04:09:13;25.90;54.40
1367;DHT22;16877;48.810;9.282;2023-10-13T04:11:57;26.30;54.60
1367;DHT22;16877;48.810;9.282;2023-10-13T04:14:41;25.80;54.30
1367;DHT22;16877;48.810;9.282;2023-10-13T04:17:28;25.90;54.30
1367;DHT22;16877;48.810;9.282;2023-10-13T04:19:59;25.90;54.30
1367;DHT22;16877;48.810;9.282;2023-10-13T04:22:54;25.60;54.20
1367;DHT22;16877;48.810;9.282;2023-10-13T04:25:36;26.00;54.40
1367;DHT22;16877;48.810;9.282;2023-10-13T04:28:18;25.80;54.30
1367;DHT22;16877;48.810;9.282;2023-10-13T04:31:00;25.90;54.40
1367;DHT22;16877;48.810;9.282;2023-10-13T04:33:37;25.90;54.40
1367;DHT22;16877;48.810;9.282;2023-10-13T04:36:17;25.90;54.40
1367;DHT22;16877;48.810;9.282;2023-10-13T04:38:50;25.70;54.30
1367;DHT22;16877;48.810;9.282;2023-10-13T04:41:26;25.50;54.20
1367;DHT22;16877;48.810;9.282;2023-10-13T04:43:57;25.80;54.70
1367;DHT22;16877;48.810;9.282;2023-10-13T04:46:30;25.60;54.30
1367;DHT22;16877;48.810;9.282;2023-10-13T04:49:19;25.50;54.20
1367;DHT22;16877;48.810;9.282;2023-10-13T04:51:54;25.80;54.50
1367;DHT22;16877;48.810;9.282;2023-10-13T04:54:42;25.50;54.30
1367;DHT22;16877;48.810;9.282;2023-10-13T04:57:11;25.60;54.70
1367;DHT22;16877;48.810;9.282;2023-10-13T04:59:52;25.60;54.60
1367;DHT22;16877;48.810;9.282;2023-10-13T05:03:03;25.70;54.90
1367;DHT22;16877;48.810;9.282;2023-10-13T05:06:06;25.90;55.10
1367;DHT22;16877;48.810;9.282;2023-10-13T05:08:59;25.80;55.20
1367;DHT22;16877;48.810;9.282;2023-10-13T05:11:44;25.60;54.90
1367;DHT22;16877;48.810;9.282;2023-10-13T05:14:28;25.90;55.00
1367;DHT22;16877;48.810;9.282;2023-10-13T05:17:12;25.70;54.70
1367;DHT22;16877;48.810;9.282;2023-10-13T05:19:58;25.70;54.70
1367;DHT22;16877;48.810;9.282;2023-10-13T05:22:42;25.50;54.50
1367;DHT22;16877;48.810;9.282;2023-10-13T05:25:26;25.90;54.80
1367;DHT22;16877;48.810;9.282;2023-10-13T05:28:12;25.80;54.50
1367;DHT22;16877;48.810;9.282;2023-10-13T05:31:08;25.60;54.40
1367;DHT22;16877;48.810;9.282;2023-10-13T05:33:52;25.50;54.40
1367;DHT22;16877;48.810;9.282;2023-10-13T05:36:36;25.30;54.20
1367;DHT22;16877;48.810;9.282;2023-10-13T05:39:21;25.30;54.40
1367;DHT22;16877;48.810;9.282;2023-10-13T05:42:07;25.40;54.50
1367;DHT22;16877;48.810;9.282;2023-10-13T05:44:52;25.50;54.80
1367;DHT22;16877;48.810;9.282;2023-10-13T05:47:49;25.40;54.50
1367;DHT22;16877;48.810;9.282;2023-10-13T05:50:26;25.40;54.50
1367;DHT22;16877;48.810;9.282;2023-10-13T05:53:15;25.50;54.50
1367;DHT22;16877;48.810;9.282;2023-10-13T05:56:01;25.60;54.50
1367;DHT22;16877;48.810;9.282;2023-10-13T05:58:45;25.70;54.60
1367;DHT22;16877;48.810;9.282;2023-10-13T06:01:31;25.60;54.40
1367;DHT22;16877;48.810;9.282;2023-10-13T06:04:15;25.70;54.60
1367;DHT22;16877;48.810;9.282;2023-10-13T06:07:04;25.80;54.90
1367;DHT22;16877;48.810;9.282;2023-10-13T06:09:49;25.90;55.20
1367;DHT22;16877;48.810;9.282;2023-10-13T06:12:33;26.20;55.50
1367;DHT22;16877;48.810;9.282;2023-10-13T06:15:17;26.00;55.40
1367;DHT22;16877;48.810;9.282;2023-10-13T06:18:03;25.90;55.30
1367;DHT22;16877;48.810;9.282;2023-10-13T06:20:47;26.10;55.50
1367;DHT22;16877;48.810;9.282;2023-10-13T06:23:31;26.40;56.40
1367;DHT22;16877;48.810;9.282;2023-10-13T06:26:15;26.40;56.80
1367;DHT22;16877;48.810;9.282;2023-10-13T06:29:00;26.00;56.90
1367;DHT22;16877;48.810;9.282;2023-10-13T06:31:26;26.10;57.30
1367;DHT22;16877;48.810;9.282;2023-10-13T06:33:54;26.30;57.50
1367;DHT22;16877;48.810;9.282;2023-10-13T06:36:21;26.50;57.70
1367;DHT22;16877;48.810;9.282;2023-10-13T06:38:48;26.10;57.30
1367;DHT22;16877;48.810;9.282;2023-10-13T06:41:41;26.20;57.30
1367;DHT22;16877;48.810;9.282;2023-10-13T06:44:09;26.50;57.60
1367;DHT22;16877;48.810;9.282;2023-10-13T06:46:40;26.10;57.10
1367;DHT22;16877;48.810;9.282;2023-10-13T06:49:09;26.20;57.20
1367;DHT22;16877;48.810;9.282;2023-10-13T06:51:36;26.40;57.40
1367;DHT22;16877;48.810;9.282;2023-10-13T06:54:05;26.60;57.70
1367;DHT22;16877;48.810;9.282;2023-10-13T06:56:37;26.30;57.10
1367;DHT22;16877;48.810;9.282;2023-10-13T06:59:05;26.50;57.00
1367;DHT22;16877;48.810;9.282;2023-10-13T07:01:33;26.50;56.40
1367;DHT22;16877;48.810;9.282;2023-10-13T07:04:06;26.50;56.70
1367;DHT22;16877;48.810;9.282;2023-10-13T07:06:40;26.60;57.00
1367;DHT22;16877;48.810;9.282;2023-10-13T07:09:14;26.70;56.10
1367;DHT22;16877;48.810;9.282;2023-10-13T07:12:03;26.60;55.30
1367;DHT22;16877;48.810;9.282;2023-10-13T07:14:32;26.70;55.40
1367;DHT22;16877;48.810;9.282;2023-10-13T07:17:01;27.00;55.70
1367;DHT22;16877;48.810;9.282;2023-10-13T07:19:30;27.30;56.40
1367;DHT22;16877;48.810;9.282;2023-10-13T07:21:59;27.20;56.90
1367;DHT22;16877;48.810;9.282;2023-10-13T07:24:29;27.10;56.70
1367;DHT22;16877;48.810;9.282;2023-10-13T07:26:57;27.40;57.50
1367;DHT22;16877;48.810;9.282;2023-10-13T07:29:29;27.60;56.80
1367;DHT22;16877;48.810;9.282;2023-10-13T07:31:56;27.60;56.00
1367;DHT22;16877;48.810;9.282;2023-10-13T07:34:24;27.70;55.30
1367;DHT22;16877;48.810;9.282;2023-10-13T07:36:52;28.10;54.70
1367;DHT22;16877;48.810;9.282;2023-10-13T07:39:21;28.20;53.60
1367;DHT22;16877;48.810;9.282;2023-10-13T07:41:50;28.30;52.50
1367;DHT22;16877;48.810;9.282;2023-10-13T07:44:21;28.10;51.80
1367;DHT22;16877;48.810;9.282;2023-10-13T07:46:51;28.30;51.90
1367;DHT22;16877;48.810;9.282;2023-10-13T07:49:28;28.60;51.70
1367;DHT22;16877;48.810;9.282;2023-10-13T07:51:58;28.70;51.30
1367;DHT22;16877;48.810;9.282;2023-10-13T07:54:27;29.00;50.90
1367;DHT22;16877;48.810;9.282;2023-10-13T07:56:54;28.80;50.90
1367;DHT22;16877;48.810;9.282;2023-10-13T07:59:21;29.00;50.60
1367;DHT22;16877;48.810;9.282;2023-10-13T08:01:49;29.00;50.30
1367;DHT22;16877;48.810;9.282;2023-10-13T08:04:37;28.80;50.10
1367;DHT22;16877;48.810;9.282;2023-10-13T08:07:04;29.30;50.50
1367;DHT22;16877;48.810;9.282;2023-10-13T08:09:40;29.30;50.20
1367;DHT22;16877;48.810;9.282;2023-10-13T08:12:09;29.50;50.00
1367;DHT22;16877;48.810;9.282;2023-10-13T08:14:37;29.40;49.70
1367;DHT22;16877;48.810;9.282;2023-10-13T08:17:06;29.50;49.60
1367;DHT22;16877;48.810;9.282;2023-10-13T08:19:38;29.60;49.50
1367;DHT22;16877;48.810;9.282;2023-10-13T08:22:11;29.50;49.10
1367;DHT22;16877;48.810;9.282;2023-10-13T08:25:03;30.00;49.10
1367;DHT22;16877;48.810;9.282;2023-10-13T08:27:46;29.80;48.40
1367;DHT22;16877;48.810;9.282;2023-10-13T08:30:15;29.90;48.60
1367;DHT22;16877;48.810;9.282;2023-10-13T08:32:54;30.00;48.30
1367;DHT22;16877;48.810;9.282;2023-10-13T08:35:22;30.00;48.10
1367;DHT22;16877;48.810;9.282;2023-10-13T08:37:59;30.00;47.90
1367;DHT22;16877;48.810;9.282;2023-10-13T08:40:31;30.00;48.00
1367;DHT22;16877;48.810;9.282;2023-10-13T08:43:32;30.20;48.50
1367;DHT22;16877;48.810;9.282;2023-10-13T08:46:09;30.60;47.90
1367;DHT22;16877;48.810;9.282;2023-10-13T08:48:52;30.70;47.80
1367;DHT22;16877;48.810;9.282;2023-10-13T08:51:19;30.70;47.50
1367;DHT22;16877;48.810;9.282;2023-10-13T08:54:02;30.90;47.20
1367;DHT22;16877;48.810;9.282;2023-10-13T08:56:46;30.80;47.10
1367;DHT22;16877;48.810;9.282;2023-10-13T08:59:20;31.00;47.00
1367;DHT22;16877;48.810;9.282;2023-10-13T09:01:48;31.60;47.10
1367;DHT22;16877;48.810;9.282;2023-10-13T09:04:26;31.20;46.60
1367;DHT22;16877;48.810;9.282;2023-10-13T09:06:59;31.40;46.60
1367;DHT22;16877;48.810;9.282;2023-10-13T09:09:47;31.50;46.60
1367;DHT22;16877;48.810;9.282;2023-10-13T09:12:38;31.40;46.50
1367;DHT22;16877;48.810;9.282;2023-10-13T09:15:29;31.60;46.70
1367;DHT22;16877;48.810;9.282;2023-10-13T09:18:10;31.50;46.60
1367;DHT22;16877;48.810;9.282;2023-10-13T09:20:40;31.50;46.70
1367;DHT22;16877;48.810;9.282;2023-10-13T09:23:09;31.90;47.10
1367;DHT22;16877;48.810;9.282;2023-10-13T09:25:39;32.30;46.80
1367;DHT22;16877;48.810;9.282;2023-10-13T09:28:20;32.30;46.90
1367;DHT22;16877;48.810;9.282;2023-10-13T09:30:51;32.50;46.70
1367;DHT22;16877;48.810;9.282;2023-10-13T09:33:20;32.70;46.80
1367;DHT22;16877;48.810;9.282;2023-10-13T09:35:54;32.90;46.60
1367;DHT22;16877;48.810;9.282;2023-10-13T09:38:20;33.10;46.50
1367;DHT22;16877;48.810;9.282;2023-10-13T09:40:47;33.20;46.30
1367;DHT22;16877;48.810;9.282;2023-10-13T09:43:16;33.70;46.00
1367;DHT22;16877;48.810;9.282;2023-10-13T09:45:47;33.90;45.50
1367;DHT22;16877;48.810;9.282;2023-10-13T09:48:35;33.90;45.30
1367;DHT22;16877;48.810;9.282;2023-10-13T09:51:03;34.30;45.00
1367;DHT22;16877;48.810;9.282;2023-10-13T09:53:31;34.00;44.80
1367;DHT22;16877;48.810;9.282;2023-10-13T09:56:02;34.60;45.00
1367;DHT22;16877;48.810;9.282;2023-10-13T09:58:46;34.80;44.70
1367;DHT22;16877;48.810;9.282;2023-10-13T10:01:22;35.00;44.30
1367;DHT22;16877;48.810;9.282;2023-10-13T10:04:06;35.30;43.90
1367;DHT22;16877;48.810;9.282;2023-10-13T10:06:35;35.60;44.00
1367;DHT22;16877;48.810;9.282;2023-10-13T10:09:05;35.90;43.90
1367;DHT22;16877;48.810;9.282;2023-10-13T10:12:01;36.00;43.70
1367;DHT22;16877;48.810;9.282;2023-10-13T10:17:41;36.60;42.50
1367;DHT22;16877;48.810;9.282;2023-10-13T10:20:08;36.80;41.80
1367;DHT22;16877;48.810;9.282;2023-10-13T10:22:55;37.10;41.40
1367;DHT22;16877;48.810;9.282;2023-10-13T10:25:29;37.20;41.20
1367;DHT22;16877;48.810;9.282;2023-10-13T10:28:01;37.40;40.70
1367;DHT22;16877;48.810;9.282;2023-10-13T10:30:31;37.80;40.60
1367;DHT22;16877;48.810;9.282;2023-10-13T10:33:01;37.50;40.30
1367;DHT22;16877;48.810;9.282;2023-10-13T10:35:33;37.10;40.70
1367;DHT22;16877;48.810;9.282;2023-10-13T10:38:07;37.00;40.20
1367;DHT22;16877;48.810;9.282;2023-10-13T10:40:49;37.00;40.20
1367;DHT22;16877;48.810;9.282;2023-10-13T10:43:23;37.20;40.20
1367;DHT22;16877;48.810;9.282;2023-10-13T10:45:52;37.30;40.00
1367;DHT22;16877;48.810;9.282;2023-10-13T10:48:26;37.70;40.10
1367;DHT22;16877;48.810;9.282;2023-10-13T10:51:00;37.60;39.90
1367;DHT22;16877;48.810;9.282;2023-10-13T10:53:34;37.40;39.90
1367;DHT22;16877;48.810;9.282;2023-10-13T10:56:09;37.10;40.00
1367;DHT22;16877;48.810;9.282;2023-10-13T10:58:46;37.10;40.10
1367;DHT22;16877;48.810;9.282;2023-10-13T11:01:13;37.20;40.10
1367;DHT22;16877;48.810;9.282;2023-10-13T11:03:54;37.50;40.10
1367;DHT22;16877;48.810;9.282;2023-10-13T11:06:24;37.90;39.80
1367;DHT22;16877;48.810;9.282;2023-10-13T11:09:01;38.20;39.70
1367;DHT22;16877;48.810;9.282;2023-10-13T11:11:29;37.90;39.20
1367;DHT22;16877;48.810;9.282;2023-10-13T11:14:01;37.90;39.70
1367;DHT22;16877;48.810;9.282;2023-10-13T11:16:46;37.50;39.60
1367;DHT22;16877;48.810;9.282;2023-10-13T11:19:18;37.80;40.00
1367;DHT22;16877;48.810;9.282;2023-10-13T11:21:51;38.00;39.90
1367;DHT22;16877;48.810;9.282;2023-10-13T11:24:18;38.30;39.70
1367;DHT22;16877;48.810;9.282;2023-10-13T11:26:47;38.20;39.30
1367;DHT22;16877;48.810;9.282;2023-10-13T11:29:18;38.60;39.40
1367;DHT22;16877;48.810;9.282;2023-10-13T11:31:48;38.60;39.20
1367;DHT22;16877;48.810;9.282;2023-10-13T11:34:25;38.80;39.20
1367;DHT22;16877;48.810;9.282;2023-10-13T11:37:01;38.90;38.90
1367;DHT22;16877;48.810;9.282;2023-10-13T11:39:50;38.70;38.70
1367;DHT22;16877;48.810;9.282;2023-10-13T11:42:18;38.60;38.50
1367;DHT22;16877;48.810;9.282;2023-10-13T11:44:45;38.80;38.50
1367;DHT22;16877;48.810;9.282;2023-10-13T11:47:10;39.00;38.60
1367;DHT22;16877;48.810;9.282;2023-10-13T11:49:58;39.30;38.70
1367;DHT22;16877;48.810;9.282;2023-10-13T11:52:25;39.20;38.20
1367;DHT22;16877;48.810;9.282;2023-10-13T11:54:55;39.30;38.00
1367;DHT22;16877;48.810;9.282;2023-10-13T11:57:22;39.60;38.00
1367;DHT22;16877;48.810;9.282;2023-10-13T11:59:50;39.60;37.90
1367;DHT22;16877;48.810;9.282;2023-10-13T12:02:21;39.90;37.90
1367;DHT22;16877;48.810;9.282;2023-10-13T12:05:07;39.80;37.60
1367;DHT22;16877;48.810;9.282;2023-10-13T12:07:38;39.80;37.70
1367;DHT22;16877;48.810;9.282;2023-10-13T12:10:17;39.90;37.70
1367;DHT22;16877;48.810;9.282;2023-10-13T12:12:58;39.80;37.60
1367;DHT22;16877;48.810;9.282;2023-10-13T12:15:31;39.70;37.40
1367;DHT22;16877;48.810;9.282;2023-10-13T12:18:03;40.10;37.60
1367;DHT22;16877;48.810;9.282;2023-10-13T12:20:31;40.00;37.60
1367;DHT22;16877;48.810;9.282;2023-10-13T12:23:01;40.00;37.70
1367;DHT22;16877;48.810;9.282;2023-10-13T12:25:40;40.30;37.70
1367;DHT22;16877;48.810;9.282;2023-10-13T12:28:26;40.30;37.60
1367;DHT22;16877;48.810;9.282;2023-10-13T12:30:55;40.40;37.40
1367;DHT22;16877;48.810;9.282;2023-10-13T12:33:24;40.40;37.10
1367;DHT22;16877;48.810;9.282;2023-10-13T12:35:57;40.60;37.20
1367;DHT22;16877;48.810;9.282;2023-10-13T12:38:33;40.90;37.20
1367;DHT22;16877;48.810;9.282;2023-10-13T12:41:47;40.80;36.90
1367;DHT22;16877;48.810;9.282;2023-10-13T12:44:32;41.10;37.10
1367;DHT22;16877;48.810;9.282;2023-10-13T12:47:16;41.00;36.90
1367;DHT22;16877;48.810;9.282;2023-10-13T12:50:00;41.40;37.10
1367;DHT22;16877;48.810;9.282;2023-10-13T12:52:35;41.60;36.90
1367;DHT22;16877;48.810;9.282;2023-10-13T12:55:02;41.60;36.70
1367;DHT22;16877;48.810;9.282;2023-10-13T12:57:38;41.50;36.50
1367;DHT22;16877;48.810;9.282;2023-10-13T13:00:11;41.90;36.50
1367;DHT22;16877;48.810;9.282;2023-10-13T13:02:49;41.80;36.40
1367;DHT22;16877;48.810;9.282;2023-10-13T13:05:18;42.00;36.60
1367;DHT22;16877;48.810;9.282;2023-10-13T13:07:49;41.90;36.40
1367;DHT22;16877;48.810;9.282;2023-10-13T13:10:19;42.00;36.30
1367;DHT22;16877;48.810;9.282;2023-10-13T13:12:54;42.10;36.20
1367;DHT22;16877;48.810;9.282;2023-10-13T13:15:20;42.10;36.30
1367;DHT22;16877;48.810;9.282;2023-10-13T13:17:49;42.20;36.30
1367;DHT22;16877;48.810;9.282;2023-10-13T13:20:16;42.20;36.30
1367;DHT22;16877;48.810;9.282;2023-10-13T13:22:54;42.20;36.00
1367;DHT22;16877;48.810;9.282;2023-10-13T13:25:27;42.30;36.10
1367;DHT22;16877;48.810;9.282;2023-10-13T13:27:55;42.30;36.10
1367;DHT22;16877;48.810;9.282;2023-10-13T13:30:24;42.30;36.00
1367;DHT22;16877;48.810;9.282;2023-10-13T13:32:55;42.30;35.90
1367;DHT22;16877;48.810;9.282;2023-10-13T13:35:24;42.40;36.00
1367;DHT22;16877;48.810;9.282;2023-10-13T13:38:00;42.30;35.90
1367;DHT22;16877;48.810;9.282;2023-10-13T13:40:36;42.50;36.80
1367;DHT22;16877;48.810;9.282;2023-10-13T13:43:03;42.40;36.20
1367;DHT22;16877;48.810;9.282;2023-10-13T13:45:30;42.70;36.20
1367;DHT22;16877;48.810;9.282;2023-10-13T13:47:57;42.60;35.90
1367;DHT22;16877;48.810;9.282;2023-10-13T13:50:25;42.70;36.00
1367;DHT22;16877;48.810;9.282;2023-10-13T13:52:55;42.70;35.20
1367;DHT22;16877;48.810;9.282;2023-10-13T13:55:23;42.90;35.10
1367;DHT22;16877;48.810;9.282;2023-10-13T13:57:56;42.70;34.90
1367;DHT22;16877;48.810;9.282;2023-10-13T14:00:22;42.70;34.90
1367;DHT22;16877;48.810;9.282;2023-10-13T14:03:02;42.50;34.80
1367;DHT22;16877;48.810;9.282;2023-10-13T14:05:29;42.70;35.30
1367;DHT22;16877;48.810;9.282;2023-10-13T14:07:56;42.70;35.40
1367;DHT22;16877;48.810;9.282;2023-10-13T14:10:24;42.50;35.10
1367;DHT22;16877;48.810;9.282;2023-10-13T14:13:20;42.70;34.90
1367;DHT22;16877;48.810;9.282;2023-10-13T14:15:48;42.60;34.90
1367;DHT22;16877;48.810;9.282;2023-10-13T14:18:14;42.70;35.00
1367;DHT22;16877;48.810;9.282;2023-10-13T14:20:41;42.70;34.90
1367;DHT22;16877;48.810;9.282;2023-10-13T14:23:08;42.60;34.70
1367;DHT22;16877;48.810;9.282;2023-10-13T14:25:38;42.80;34.80
1367;DHT22;16877;48.810;9.282;2023-10-13T14:28:09;42.40;34.40
1367;DHT22;16877;48.810;9.282;2023-10-13T14:30:37;42.50;34.20
1367;DHT22;16877;48.810;9.282;2023-10-13T14:33:04;42.20;34.10
1367;DHT22;16877;48.810;9.282;2023-10-13T14:35:36;42.00;34.10
1367;DHT22;16877;48.810;9.282;2023-10-13T14:38:03;41.90;34.20
1367;DHT22;16877;48.810;9.282;2023-10-13T14:40:30;42.00;34.60
1367;DHT22;16877;48.810;9.282;2023-10-13T14:42:58;41.80;34.60
1367;DHT22;16877;48.810;9.282;2023-10-13T14:45:25;41.90;34.30
1367;DHT22;16877;48.810;9.282;2023-10-13T14:47:51;42.00;34.50
1367;DHT22;16877;48.810;9.282;2023-10-13T14:50:18;41.90;34.40
1367;DHT22;16877;48.810;9.282;2023-10-13T14:52:46;41.90;34.30
1367;DHT22;16877;48.810;9.282;2023-10-13T14:55:13;41.80;34.20
1367;DHT22;16877;48.810;9.282;2023-10-13T14:57:46;41.70;34.30
1367;DHT22;16877;48.810;9.282;2023-10-13T15:00:17;41.80;34.30
1367;DHT22;16877;48.810;9.282;2023-10-13T15:02:51;41.80;34.30
1367;DHT22;16877;48.810;9.282;2023-10-13T15:05:18;41.60;34.10
1367;DHT22;16877;48.810;9.282;2023-10-13T15:07:45;41.60;34.00
1367;DHT22;16877;48.810;9.282;2023-10-13T15:10:13;41.60;34.10
1367;DHT22;16877;48.810;9.282;2023-10-13T15:12:41;41.20;33.90
1367;DHT22;16877;48.810;9.282;2023-10-13T15:15:08;41.30;34.00
1367;DHT22;16877;48.810;9.282;2023-10-13T15:17:40;41.10;33.90
1367;DHT22;16877;48.810;9.282;2023-10-13T15:20:07;41.10;34.10
1367;DHT22;16877;48.810;9.282;2023-10-13T15:22:35;40.90;34.00
1367;DHT22;16877;48.810;9.282;2023-10-13T15:25:04;41.00;34.10
1367;DHT22;16877;48.810;9.282;2023-10-13T15:27:45;40.90;34.10
1367;DHT22;16877;48.810;9.282;2023-10-13T15:30:21;40.70;34.00
1367;DHT22;16877;48.810;9.282;2023-10-13T15:32:50;40.70;34.00
1367;DHT22;16877;48.810;9.282;2023-10-13T15:35:19;40.40;33.90
1367;DHT22;16877;48.810;9.282;2023-10-13T15:37:49;40.60;34.10
1367;DHT22;16877;48.810;9.282;2023-10-13T15:40:17;40.60;34.20
1367;DHT22;16877;48.810;9.282;2023-10-13T15:42:44;40.70;34.40
1367;DHT22;16877;48.810;9.282;2023-10-13T15:45:11;40.50;34.60
1367;DHT22;16877;48.810;9.282;2023-10-13T15:47:43;40.70;34.30
1367;DHT22;16877;48.810;9.282;2023-10-13T15:50:13;40.50;34.10
1367;DHT22;16877;48.810;9.282;2023-10-13T15:52:42;40.40;34.10
1367;DHT22;16877;48.810;9.282;2023-10-13T15:55:12;40.10;34.20
1367;DHT22;16877;48.810;9.282;2023-10-13T15:57:39;39.90;34.30
1367;DHT22;16877;48.810;9.282;2023-10-13T16:00:08;39.60;34.30
1367;DHT22;16877;48.810;9.282;2023-10-13T16:02:49;39.40;34.30
1367;DHT22;16877;48.810;9.282;2023-10-13T16:05:18;39.10;34.30
1367;DHT22;16877;48.810;9.282;2023-10-13T16:07:48;38.90;34.30
1367;DHT22;16877;48.810;9.282;2023-10-13T16:10:16;38.70;34.50
1367;DHT22;16877;48.810;9.282;2023-10-13T16:12:43;38.50;34.40
1367;DHT22;16877;48.810;9.282;2023-10-13T16:15:11;38.30;34.60
1367;DHT22;16877;48.810;9.282;2023-10-13T16:17:39;38.20;34.80
1367;DHT22;16877;48.810;9.282;2023-10-13T16:20:07;37.90;34.80
1367;DHT22;16877;48.810;9.282;2023-10-13T16:22:43;38.10;35.10
1367;DHT22;16877;48.810;9.282;2023-10-13T16:25:10;37.60;35.10
1367;DHT22;16877;48.810;9.282;2023-10-13T16:27:38;37.40;35.20